Alliance, NE

5:02 PM MDT on July 24, 2014 (GMT -0600)
Alliance Municipal (KAIA) Elev 3930 ft | 42.06 °N, 102.80 °W | Change Station

Current weather conditions updated 9 minutes ago

Thunderstorm
Thunderstorm
90 °F
Feels Like 90 °F
N
15
Wind Variable Wind from West
Gusts 30 mph

Tomorrow is forecast to be Much Cooler than today.

Today
High -- | Low -- °F
--% Chance of Precip.
Yesterday
High -- | Low -- °F
Precip. -- in
5:36 AM 8:18 PM
Waning Crescent, 4% visible
Pressure 29.76 in
Visibility 10.0 miles
Clouds Scattered Clouds 12000 ft
Dew Point 52 °F
Humidity 27%
Rainfall 0.00 in
Snow Depth Not available.
UV 4 out of 12
Pollen 7.00 out of 12
Air Quality Not available.
Flu Activity Not available.
METAR KAIA 242253Z AUTO 27013G26KT 10SM TS SCT120 32/11 A2990 RMK AO2 PK WND 21031/2238 LTG DSNT N AND NE AND S TSB48 PRESRR SLP076 T03220111

More Conditions Fewer Conditions

Pressure 29.76 in
Visibility 10.0 miles
Clouds Scattered Clouds 12000 ft
Dew Point 52 °F
Humidity 27%
Rainfall 0.00 in
Snow Depth Not available.
UV 4 out of 12
Pollen 7.00 out of 12
Air Quality Not available.
Flu Activity Not available.
METAR KAIA 242253Z AUTO 27013G26KT 10SM TS SCT120 32/11 A2990 RMK AO2 PK WND 21031/2238 LTG DSNT N AND NE AND S TSB48 PRESRR SLP076 T03220111

More Conditions Fewer Conditions

Nowcast | as of 3:19 PM MDT on July 24, 2014

Through late afternoon...scattered showers and thunderstorms will continue to develop and move to the east over east central and southeast Wyoming and the western Nebraska Panhandle. The stronger thunderstorms will be capable of producing small hail...wind gusts to 40 mph...and brief heavy rain.

×

10-Day Weather Forecast

Almanac

Astronomy

Jul. 24, 2014 Rise Set
Actual Time 5:36 AM MDT 8:18 PM MDT
Civil Twilight 5:04 AM MDT 8:51 PM MDT
Nautical Twilight 4:23 AM MDT 9:31 PM MDT
Astronomical Twilight 3:36 AM MDT 10:18 PM MDT
Moon 3:47 AM MDT 6:34 PM MDT
Length of Visible Light 15h 46m
Length of Day
14h 41m
Tomorrow will be 1m 54s shorter.
Waning Crescent, 4% of the Moon is Illuminated
Today
Waning Crescent
Jul 26
New
Aug 3
First Quarter
Aug 10
Full
Aug 17
Last Quarter

Today's Extremes

State Highs State Lows

Community

WunderPhotos

Upload Photos

1,737,158 photos uploaded!

Nearby

Snow Depth

Station Depth Elevation
No new snow has been reported.

Earthquake Activity

City Distance Mag. Time & Date
No recent earthquake activity has been reported nearby.
Minimum magnitude displayed is 2.5.

Coastal Water Temperatures

Place Temperature
No Stations Reporting

Nearby Weather Stations

Station Location Temp. Heat Index Dew Point Humidity Wind Precip. Elev Updated Type
Panhandle Coop/Box Butte Co, Alliance, NE 85.3 °F 86 °F 62 °F 45% NW  at  5.0 mph 0.10 in / hr 4140 ft 4:58 PM MDT Normal
Wayne Rd., Alliance, NE 96.4 °F 93 °F 49 °F 20% NW  at  12.0 mph 0.00 in / hr 4091 ft 4:59 PM MDT Normal

Show More Stations Show Fewer Stations